createdAt,value
2024-03-03T00:00:42.918Z,36.72
2024-03-03T00:01:44.633Z,36.28
2024-03-03T00:02:46.328Z,38.22
2024-03-03T00:03:48.201Z,37.88
2024-03-03T00:04:52.966Z,39.38
2024-03-03T00:05:54.662Z,35.75
2024-03-03T00:06:56.314Z,35.60
2024-03-03T00:08:00.313Z,36.45
2024-03-03T00:09:01.978Z,40.78
2024-03-03T00:10:04.548Z,38.58
2024-03-03T00:11:06.403Z,38.25
2024-03-03T00:12:08.648Z,42.92
2024-03-03T00:13:10.477Z,38.10
2024-03-03T00:14:13.082Z,35.90
2024-03-03T00:15:14.812Z,38.65
2024-03-03T00:16:17.248Z,38.35
2024-03-03T00:17:21.375Z,36.80
2024-03-03T00:18:22.971Z,35.03
2024-03-03T00:19:25.154Z,36.38
2024-03-03T00:20:27.453Z,36.83
2024-03-03T00:21:29.252Z,36.47
2024-03-03T00:22:35.185Z,38.55
2024-03-03T00:23:39.995Z,44.90
2024-03-03T00:24:41.971Z,36.55
2024-03-03T00:25:43.806Z,35.63
2024-03-03T00:26:45.591Z,35.90
2024-03-03T00:27:47.936Z,37.13
2024-03-03T00:28:49.615Z,38.95
2024-03-03T00:29:51.693Z,35.85
2024-03-03T00:30:53.758Z,37.03
2024-03-03T00:31:55.826Z,34.30
2024-03-03T00:32:57.857Z,38.72
2024-03-03T00:33:59.745Z,38.58
2024-03-03T00:35:01.619Z,40.00
2024-03-03T00:36:06.837Z,39.83
2024-03-03T00:37:08.642Z,38.05
2024-03-03T00:38:11.346Z,40.30
2024-03-03T00:39:13.996Z,40.17
2024-03-03T00:40:16.674Z,36.08
2024-03-03T00:41:18.625Z,46.08
2024-03-03T00:42:20.415Z,40.65
2024-03-03T00:43:22.256Z,35.38
2024-03-03T00:44:24.484Z,36.38
2024-03-03T00:45:26.125Z,36.80
2024-03-03T00:46:30.031Z,44.45
2024-03-03T00:47:31.777Z,41.13
2024-03-03T00:48:33.666Z,36.95
2024-03-03T00:49:35.618Z,38.45
2024-03-03T00:50:37.570Z,40.13
2024-03-03T00:51:40.320Z,40.55
2024-03-03T00:52:42.385Z,41.33
2024-03-03T00:53:44.330Z,39.33
2024-03-03T00:54:46.579Z,38.28
2024-03-03T00:55:52.985Z,36.78
2024-03-03T00:56:54.654Z,42.38
2024-03-03T00:57:56.497Z,42.50
2024-03-03T00:58:58.342Z,44.05
2024-03-03T01:00:00.511Z,43.47
2024-03-03T01:01:02.907Z,38.33
2024-03-03T01:02:04.686Z,39.15
2024-03-03T01:03:06.659Z,41.40
2024-03-03T01:04:08.704Z,39.42
2024-03-03T01:05:11.141Z,39.80
2024-03-03T01:06:15.556Z,39.85
2024-03-03T01:07:18.107Z,37.50
2024-03-03T01:08:19.804Z,41.47
2024-03-03T01:09:21.556Z,41.05
2024-03-03T01:10:23.366Z,37.95
2024-03-03T01:11:25.261Z,39.22
2024-03-03T01:12:27.127Z,38.20
2024-03-03T01:13:29.422Z,41.33
2024-03-03T01:14:31.880Z,39.72
2024-03-03T01:15:33.771Z,37.15
2024-03-03T01:16:35.995Z,41.38
2024-03-03T01:17:37.677Z,39.95
2024-03-03T01:18:39.461Z,41.63
2024-03-03T01:19:41.193Z,42.35
2024-03-03T01:20:43.208Z,40.05
2024-03-03T01:21:45.597Z,37.53
2024-03-03T01:22:47.510Z,40.50
2024-03-03T01:23:49.333Z,41.38
2024-03-03T01:24:50.971Z,40.63
2024-03-03T01:25:52.761Z,41.08
2024-03-03T01:26:54.992Z,37.53
2024-03-03T01:27:56.737Z,43.10
2024-03-03T01:28:58.823Z,40.25
2024-03-03T01:30:01.178Z,39.00
2024-03-03T01:31:02.856Z,40.60
2024-03-03T01:32:04.969Z,40.85
2024-03-03T01:33:06.974Z,41.13
2024-03-03T01:34:08.701Z,41.45
2024-03-03T01:35:10.569Z,43.88
2024-03-03T01:36:12.474Z,40.10
2024-03-03T01:37:14.467Z,42.10
2024-03-03T01:38:16.217Z,41.13
2024-03-03T01:39:17.923Z,41.58
2024-03-03T01:40:19.712Z,39.70
2024-03-03T01:41:21.392Z,37.28
2024-03-03T01:42:23.143Z,36.63
2024-03-03T01:43:24.823Z,37.83
2024-03-03T01:44:26.476Z,40.58
2024-03-03T01:45:28.199Z,42.40
2024-03-03T01:46:30.221Z,41.80
2024-03-03T01:47:32.994Z,36.05
2024-03-03T01:48:35.741Z,36.90
2024-03-03T01:49:39.947Z,39.25
2024-03-03T01:50:43.061Z,42.30
2024-03-03T01:51:46.188Z,36.65
2024-03-03T01:52:50.723Z,40.90
2024-03-03T01:53:54.457Z,42.33
2024-03-03T01:54:56.812Z,35.00
2024-03-03T01:55:59.844Z,37.22
2024-03-03T01:57:03.999Z,36.22
2024-03-03T01:58:07.578Z,39.10
2024-03-03T01:59:10.914Z,38.38
2024-03-03T02:00:14.787Z,43.70
2024-03-03T02:01:17.018Z,41.38
2024-03-03T02:02:19.367Z,38.35
2024-03-03T02:03:20.969Z,43.55
2024-03-03T02:04:23.124Z,43.28
2024-03-03T02:05:24.836Z,36.55
2024-03-03T02:06:31.506Z,44.35
2024-03-03T02:07:33.828Z,44.58
2024-03-03T02:08:36.939Z,40.17
2024-03-03T02:09:39.870Z,36.53
2024-03-03T02:10:42.434Z,42.10
2024-03-03T02:11:44.430Z,40.60
2024-03-03T02:12:50.382Z,41.53
2024-03-03T02:13:54.110Z,45.67
2024-03-03T02:14:56.426Z,40.83
2024-03-03T02:15:59.129Z,48.42
2024-03-03T02:17:01.076Z,40.95
2024-03-03T02:18:05.220Z,38.75
2024-03-03T02:19:06.916Z,41.58
2024-03-03T02:20:10.410Z,38.55
2024-03-03T02:21:12.150Z,41.25
2024-03-03T02:22:15.019Z,42.20
2024-03-03T02:23:16.664Z,40.70
2024-03-03T02:24:18.589Z,44.33
2024-03-03T02:25:21.746Z,45.35
2024-03-03T02:26:26.543Z,36.38
2024-03-03T02:27:28.562Z,37.15
2024-03-03T02:28:31.219Z,35.75
2024-03-03T02:29:32.982Z,36.25
2024-03-03T02:30:34.914Z,36.05
2024-03-03T02:31:36.926Z,36.60
2024-03-03T02:32:38.980Z,33.67
2024-03-03T02:33:41.179Z,36.72
2024-03-03T02:34:43.100Z,33.22
2024-03-03T02:35:44.787Z,34.78
2024-03-03T02:36:46.862Z,29.83
2024-03-03T02:37:48.944Z,32.33
2024-03-03T02:38:51.361Z,32.53
2024-03-03T02:39:53.265Z,32.55
2024-03-03T02:40:55.492Z,29.92
2024-03-03T02:41:57.752Z,33.78
2024-03-03T02:43:01.705Z,29.92
2024-03-03T02:44:05.734Z,33.75
2024-03-03T02:45:07.954Z,30.45
2024-03-03T02:46:10.028Z,33.80
2024-03-03T02:47:11.644Z,32.10
2024-03-03T02:48:13.351Z,32.30
2024-03-03T02:49:18.676Z,35.67
2024-03-03T02:50:21.339Z,32.28
2024-03-03T02:51:23.044Z,33.25
2024-03-03T02:52:24.772Z,32.15
2024-03-03T02:53:26.470Z,34.22
2024-03-03T02:54:29.520Z,33.95
2024-03-03T02:55:31.153Z,36.35
2024-03-03T02:56:33.062Z,34.35
2024-03-03T02:57:34.770Z,34.42
2024-03-03T02:58:36.440Z,35.60
2024-03-03T02:59:38.450Z,38.15
2024-03-03T03:00:40.325Z,35.17
2024-03-03T03:01:42.147Z,35.17
2024-03-03T03:02:44.155Z,32.08
2024-03-03T03:03:46.086Z,33.13
2024-03-03T03:04:47.988Z,34.13
2024-03-03T03:05:49.841Z,34.97
2024-03-03T03:06:51.559Z,35.15
2024-03-03T03:07:53.588Z,37.78
2024-03-03T03:08:58.211Z,42.38
2024-03-03T03:10:00.351Z,37.85
2024-03-03T03:11:03.714Z,38.60
2024-03-03T03:12:06.041Z,35.22
2024-03-03T03:13:09.278Z,39.58
2024-03-03T03:14:11.552Z,36.47
2024-03-03T03:15:14.304Z,37.92
2024-03-03T03:16:16.356Z,42.25
2024-03-03T03:17:18.009Z,38.83
2024-03-03T03:18:19.627Z,41.60
2024-03-03T03:19:21.557Z,38.65
2024-03-03T03:20:23.306Z,39.17
2024-03-03T03:21:28.499Z,35.53
2024-03-03T03:22:30.592Z,39.65
2024-03-03T03:23:32.794Z,43.58
2024-03-03T03:24:34.736Z,42.72
2024-03-03T03:25:36.333Z,40.13
2024-03-03T03:26:38.135Z,44.60
2024-03-03T03:27:41.465Z,42.63
2024-03-03T03:28:43.153Z,39.47
2024-03-03T03:29:47.006Z,38.53
2024-03-03T03:30:49.156Z,39.33
2024-03-03T03:31:50.986Z,42.55
2024-03-03T03:32:52.881Z,42.47
2024-03-03T03:33:54.573Z,40.58
2024-03-03T03:34:56.220Z,38.55
2024-03-03T03:35:57.979Z,41.08
2024-03-03T03:36:59.657Z,37.65
2024-03-03T03:38:01.275Z,36.35
2024-03-03T03:39:03.018Z,38.20
2024-03-03T03:40:11.539Z,38.40
2024-03-03T03:41:13.392Z,37.25
2024-03-03T03:42:15.440Z,38.58
2024-03-03T03:43:17.091Z,41.72
2024-03-03T03:44:20.687Z,38.35
2024-03-03T03:45:22.301Z,43.58
2024-03-03T03:46:24.467Z,38.70
2024-03-03T03:47:26.181Z,37.50
2024-03-03T03:48:28.159Z,37.75
2024-03-03T03:49:30.514Z,41.00
2024-03-03T03:50:32.167Z,40.65
2024-03-03T03:51:34.009Z,40.60
2024-03-03T03:52:35.768Z,43.92
2024-03-03T03:53:37.664Z,41.63
2024-03-03T03:54:39.597Z,43.53
2024-03-03T03:55:41.309Z,42.92
2024-03-03T03:56:43.249Z,42.10
2024-03-03T03:57:44.896Z,43.67
2024-03-03T03:58:46.510Z,39.75
2024-03-03T03:59:48.507Z,37.63
2024-03-03T04:00:50.383Z,41.08
2024-03-03T04:01:53.596Z,42.85
2024-03-03T04:02:55.828Z,41.95
2024-03-03T04:03:58.819Z,38.05
2024-03-03T04:05:00.593Z,41.05
2024-03-03T04:06:02.325Z,41.40
2024-03-03T04:07:05.660Z,41.53
2024-03-03T04:08:07.654Z,40.97
2024-03-03T04:09:09.430Z,36.50
2024-03-03T04:10:11.221Z,40.13
2024-03-03T04:11:15.088Z,41.00
2024-03-03T04:12:16.763Z,40.63
2024-03-03T04:13:18.922Z,47.97
2024-03-03T04:14:20.706Z,41.00
2024-03-03T04:15:22.753Z,42.20
2024-03-03T04:16:24.528Z,40.45
2024-03-03T04:17:26.292Z,43.20
2024-03-03T04:18:31.845Z,38.65
2024-03-03T04:19:33.839Z,42.78
2024-03-03T04:20:36.999Z,39.20
2024-03-03T04:21:45.596Z,39.78
2024-03-03T04:22:47.320Z,41.92
2024-03-03T04:23:49.307Z,38.95
2024-03-03T04:24:51.015Z,36.95
2024-03-03T04:25:52.823Z,39.25
2024-03-03T04:26:54.570Z,41.22
2024-03-03T04:27:56.346Z,44.13
2024-03-03T04:28:58.013Z,44.33
2024-03-03T04:29:59.648Z,42.28
2024-03-03T04:31:08.173Z,42.33
2024-03-03T04:32:10.454Z,39.13
2024-03-03T04:33:13.931Z,41.28
2024-03-03T04:34:15.762Z,43.20
2024-03-03T04:35:17.720Z,38.50
2024-03-03T04:36:19.406Z,48.65
2024-03-03T04:37:20.996Z,42.10
2024-03-03T04:38:22.687Z,39.75
2024-03-03T04:39:24.353Z,43.00
2024-03-03T04:40:26.043Z,42.45
2024-03-03T04:41:31.881Z,42.00
2024-03-03T04:42:33.845Z,42.03
2024-03-03T04:43:35.548Z,37.63
2024-03-03T04:44:37.501Z,42.90
2024-03-03T04:45:39.338Z,39.75
2024-03-03T04:46:41.040Z,37.55
2024-03-03T04:47:43.243Z,40.55
2024-03-03T04:48:45.411Z,42.92
2024-03-03T04:49:47.431Z,42.70
2024-03-03T04:50:49.292Z,38.90
2024-03-03T04:51:51.065Z,38.65
2024-03-03T04:52:52.818Z,42.95
2024-03-03T04:53:55.937Z,37.38
2024-03-03T04:54:57.601Z,38.25
2024-03-03T04:55:59.384Z,35.45
2024-03-03T04:57:01.935Z,39.00
2024-03-03T04:58:04.286Z,39.72
2024-03-03T04:59:06.501Z,37.42
2024-03-03T05:00:14.508Z,40.33
2024-03-03T05:01:16.281Z,40.03
2024-03-03T05:02:19.652Z,38.08
2024-03-03T05:03:21.444Z,33.95
2024-03-03T05:04:23.084Z,34.83
2024-03-03T05:05:24.789Z,34.30
2024-03-03T05:06:26.416Z,35.88
2024-03-03T05:07:28.883Z,37.65
2024-03-03T05:08:30.819Z,37.25
2024-03-03T05:09:32.614Z,34.25
2024-03-03T05:10:34.386Z,34.92
2024-03-03T05:11:36.902Z,30.48
2024-03-03T05:12:38.657Z,33.97
2024-03-03T05:13:40.633Z,35.55
2024-03-03T05:14:42.212Z,35.05
2024-03-03T05:15:43.962Z,37.08
2024-03-03T05:16:45.877Z,34.17
2024-03-03T05:17:47.788Z,33.25
2024-03-03T05:18:49.915Z,34.75
2024-03-03T05:19:51.818Z,30.45
2024-03-03T05:20:53.509Z,29.27
2024-03-03T05:21:55.670Z,31.77
2024-03-03T05:22:58.451Z,30.85
2024-03-03T05:24:00.331Z,33.38
2024-03-03T05:25:02.038Z,31.63
2024-03-03T05:26:04.317Z,30.77
2024-03-03T05:27:06.069Z,30.27
2024-03-03T05:28:07.740Z,29.08
2024-03-03T05:29:09.494Z,31.27
2024-03-03T05:30:11.504Z,29.67
2024-03-03T05:31:13.263Z,23.75
2024-03-03T05:32:15.016Z,26.42
2024-03-03T05:33:16.621Z,26.40
2024-03-03T05:34:18.960Z,30.08
2024-03-03T05:35:20.749Z,26.25
2024-03-03T05:36:22.541Z,26.85
2024-03-03T05:37:24.854Z,28.73
2024-03-03T05:38:26.485Z,32.35
2024-03-03T05:39:28.586Z,34.38
2024-03-03T05:40:30.547Z,30.40
2024-03-03T05:41:32.150Z,30.58
2024-03-03T05:42:33.944Z,30.92
2024-03-03T05:43:37.734Z,28.60
2024-03-03T05:44:39.572Z,30.15
2024-03-03T05:45:41.754Z,27.00
2024-03-03T05:46:43.962Z,25.15
2024-03-03T05:47:45.706Z,27.67
2024-03-03T05:48:47.798Z,27.67
2024-03-03T05:49:49.466Z,27.00
2024-03-03T05:50:51.558Z,30.85
2024-03-03T05:51:54.000Z,29.98
2024-03-03T05:52:55.738Z,34.53
2024-03-03T05:53:57.454Z,36.75
2024-03-03T05:54:59.351Z,31.20
2024-03-03T05:56:01.020Z,36.10
2024-03-03T05:57:03.010Z,34.05
2024-03-03T05:58:04.948Z,33.55
2024-03-03T05:59:06.642Z,32.10
2024-03-03T06:00:09.893Z,35.30
2024-03-03T06:01:12.565Z,34.75
2024-03-03T06:02:14.348Z,35.25
2024-03-03T06:03:16.086Z,39.60
2024-03-03T06:04:18.976Z,40.60
2024-03-03T06:05:20.735Z,44.72
2024-03-03T06:06:22.388Z,40.28
2024-03-03T06:07:24.151Z,42.92
2024-03-03T06:08:26.541Z,50.28
2024-03-03T06:09:28.235Z,46.65
2024-03-03T06:10:29.889Z,49.15
2024-03-03T06:11:31.540Z,50.85
2024-03-03T06:12:33.437Z,56.88
2024-03-03T06:13:35.924Z,46.38
2024-03-03T06:14:37.612Z,45.13
2024-03-03T06:15:39.674Z,49.08
2024-03-03T06:16:42.249Z,48.95
2024-03-03T06:17:44.125Z,47.65
2024-03-03T06:18:45.892Z,49.67
2024-03-03T06:19:47.841Z,47.78
2024-03-03T06:20:49.571Z,45.60
2024-03-03T06:21:51.839Z,51.83
2024-03-03T06:22:53.938Z,44.53
2024-03-03T06:23:55.752Z,43.90
2024-03-03T06:24:57.723Z,50.35
2024-03-03T06:25:59.469Z,55.45
2024-03-03T06:27:01.146Z,45.30
2024-03-03T06:28:02.950Z,43.60
2024-03-03T06:29:07.208Z,48.47
2024-03-03T06:30:12.230Z,46.45
2024-03-03T06:31:14.239Z,47.90
2024-03-03T06:32:16.354Z,47.10
2024-03-03T06:33:19.577Z,44.78
2024-03-03T06:34:21.436Z,42.42
2024-03-03T06:35:23.216Z,42.95
2024-03-03T06:36:24.844Z,43.42
2024-03-03T06:37:27.630Z,38.72
2024-03-03T06:38:29.535Z,39.97
2024-03-03T06:39:31.866Z,42.75
2024-03-03T06:40:34.044Z,41.83
2024-03-03T06:41:35.741Z,39.58
2024-03-03T06:42:43.915Z,37.28
2024-03-03T06:43:46.467Z,41.38
2024-03-03T06:44:50.923Z,44.67
2024-03-03T06:45:52.823Z,43.60
2024-03-03T06:46:54.484Z,37.20
2024-03-03T06:47:56.126Z,37.13
2024-03-03T06:48:57.848Z,37.70
2024-03-03T06:50:00.786Z,35.25
2024-03-03T06:51:02.708Z,41.72
2024-03-03T06:52:05.021Z,44.03
2024-03-03T06:53:07.119Z,49.40
2024-03-03T06:54:08.925Z,59.97
2024-03-03T06:55:10.917Z,55.50
2024-03-03T06:56:15.331Z,57.22
2024-03-03T06:57:17.005Z,57.13
2024-03-03T06:58:19.047Z,55.28
2024-03-03T06:59:20.734Z,55.45
2024-03-03T07:00:22.637Z,56.47
2024-03-03T07:01:25.080Z,67.53
2024-03-03T07:02:47.118Z,58.30
2024-03-03T07:04:10.590Z,59.20
2024-03-03T07:05:12.595Z,64.80
2024-03-03T07:06:14.550Z,64.43
2024-03-03T07:07:16.296Z,67.20
2024-03-03T07:08:20.315Z,70.20
2024-03-03T07:09:25.087Z,66.57
2024-03-03T07:10:26.893Z,74.78
2024-03-03T07:11:29.680Z,69.32
2024-03-03T07:12:31.430Z,67.75
2024-03-03T07:13:33.487Z,71.07
2024-03-03T07:14:36.402Z,68.55
2024-03-03T07:15:38.170Z,63.90
2024-03-03T07:16:39.832Z,81.22
2024-03-03T07:17:42.719Z,76.82
2024-03-03T07:18:44.546Z,72.32
2024-03-03T07:19:46.409Z,67.80
2024-03-03T07:20:48.832Z,70.28
2024-03-03T07:21:50.814Z,72.25
2024-03-03T07:22:52.738Z,67.45
2024-03-03T07:23:54.797Z,71.78
2024-03-03T07:24:56.466Z,73.22
2024-03-03T07:26:00.521Z,82.80
2024-03-03T07:27:02.210Z,76.63
2024-03-03T07:28:04.623Z,82.30
2024-03-03T07:29:09.205Z,91.28
2024-03-03T07:30:12.803Z,78.18
2024-03-03T07:31:14.548Z,97.45
2024-03-03T07:32:16.173Z,83.82
2024-03-03T07:33:17.908Z,89.93
2024-03-03T07:34:19.663Z,94.07
2024-03-03T07:35:21.285Z,85.63
2024-03-03T07:36:22.977Z,82.60
2024-03-03T07:37:25.272Z,77.78
2024-03-03T07:38:27.317Z,75.18
2024-03-03T07:39:29.272Z,83.45
2024-03-03T07:40:36.939Z,86.60
2024-03-03T07:41:39.009Z,80.47
2024-03-03T07:42:40.737Z,84.45
2024-03-03T07:43:42.873Z,81.28
2024-03-03T07:44:44.541Z,80.53
2024-03-03T07:45:46.230Z,79.88
2024-03-03T07:46:47.947Z,88.13
2024-03-03T07:47:49.810Z,81.68
2024-03-03T07:48:51.518Z,75.72
2024-03-03T07:49:55.668Z,93.45
2024-03-03T07:50:57.705Z,77.55
2024-03-03T07:51:59.989Z,82.20
2024-03-03T07:53:01.907Z,86.45
2024-03-03T07:54:03.809Z,95.60
2024-03-03T07:55:05.880Z,75.60
2024-03-03T07:56:07.769Z,77.38
2024-03-03T07:57:09.436Z,80.68
2024-03-03T07:58:11.128Z,89.03
2024-03-03T07:59:13.858Z,87.07
2024-03-03T08:00:16.284Z,76.35
2024-03-03T08:01:18.067Z,81.45
2024-03-03T08:02:19.960Z,74.32
2024-03-03T08:03:21.750Z,83.43
2024-03-03T08:04:23.839Z,82.75
2024-03-03T08:05:25.521Z,80.13
2024-03-03T08:06:28.316Z,83.43
2024-03-03T08:07:30.203Z,73.47
2024-03-03T08:08:31.802Z,82.72
2024-03-03T08:09:33.902Z,80.70
2024-03-03T08:10:35.859Z,85.63
2024-03-03T08:11:37.976Z,90.90
2024-03-03T08:12:39.941Z,80.43
2024-03-03T08:13:41.888Z,80.40
2024-03-03T08:14:44.044Z,73.25
2024-03-03T08:15:46.208Z,81.13
2024-03-03T08:16:50.067Z,78.15
2024-03-03T08:17:51.696Z,77.60
2024-03-03T08:18:54.591Z,70.22
2024-03-03T08:19:56.222Z,73.40
2024-03-03T08:20:57.925Z,73.32
2024-03-03T08:21:59.654Z,71.45
2024-03-03T08:23:01.292Z,68.05
2024-03-03T08:24:02.963Z,70.90
2024-03-03T08:25:06.579Z,70.03
2024-03-03T08:26:12.529Z,71.03
2024-03-03T08:27:14.362Z,67.88
2024-03-03T08:28:16.078Z,73.38
2024-03-03T08:29:18.842Z,74.20
2024-03-03T08:30:21.139Z,71.20
2024-03-03T08:31:22.912Z,77.97
2024-03-03T08:32:27.556Z,69.38
2024-03-03T08:33:29.435Z,79.82
2024-03-03T08:34:31.702Z,72.38
2024-03-03T08:35:33.692Z,67.65
2024-03-03T08:36:35.513Z,70.82
2024-03-03T08:37:37.469Z,73.40
2024-03-03T08:38:39.837Z,65.50
2024-03-03T08:39:42.073Z,68.10
2024-03-03T08:40:45.701Z,71.72
2024-03-03T08:41:47.350Z,70.35
2024-03-03T08:42:49.479Z,71.82
2024-03-03T08:43:51.192Z,73.75
2024-03-03T08:44:54.904Z,68.15
2024-03-03T08:45:56.573Z,76.15
2024-03-03T08:46:58.870Z,66.00
2024-03-03T08:48:01.406Z,65.30
2024-03-03T08:49:05.415Z,69.25
2024-03-03T08:50:08.033Z,73.00
2024-03-03T08:51:11.079Z,72.43
2024-03-03T08:52:12.899Z,69.70
2024-03-03T08:53:14.691Z,64.30
2024-03-03T08:54:16.257Z,73.82
2024-03-03T08:55:18.158Z,64.55
2024-03-03T08:56:19.811Z,65.53
2024-03-03T08:57:23.045Z,59.97
2024-03-03T08:58:24.741Z,63.25
2024-03-03T08:59:26.517Z,61.28
2024-03-03T09:00:30.257Z,63.50
2024-03-03T09:01:32.007Z,64.18
2024-03-03T09:02:34.038Z,62.88
2024-03-03T09:03:36.175Z,63.13
2024-03-03T09:04:40.846Z,64.90
2024-03-03T09:05:42.835Z,70.30
2024-03-03T09:06:44.842Z,62.92
2024-03-03T09:07:46.563Z,61.92
2024-03-03T09:08:48.994Z,63.10
2024-03-03T09:09:51.052Z,62.60
2024-03-03T09:10:57.873Z,61.67
2024-03-03T09:12:00.612Z,67.43
2024-03-03T09:13:02.307Z,61.47
2024-03-03T09:14:04.564Z,59.42
2024-03-03T09:15:07.536Z,58.65
2024-03-03T09:16:10.416Z,56.40
2024-03-03T09:17:12.090Z,68.85
2024-03-03T09:18:13.896Z,58.15
2024-03-03T09:19:17.155Z,59.92
2024-03-03T09:20:19.289Z,60.58
2024-03-03T09:21:23.867Z,57.45
2024-03-03T09:22:25.690Z,55.95
2024-03-03T09:23:27.570Z,59.88
2024-03-03T09:24:29.210Z,54.88
2024-03-03T09:25:31.125Z,62.90
2024-03-03T09:26:32.812Z,63.97
2024-03-03T09:27:34.496Z,56.88
2024-03-03T09:28:36.353Z,56.03
2024-03-03T09:29:38.037Z,54.60
2024-03-03T09:30:39.734Z,54.30
2024-03-03T09:31:41.339Z,60.17
2024-03-03T09:32:43.095Z,56.30
2024-03-03T09:33:48.009Z,59.05
2024-03-03T09:34:51.189Z,60.83
2024-03-03T09:35:53.793Z,59.72
2024-03-03T09:36:55.512Z,53.75
2024-03-03T09:37:57.237Z,53.15
2024-03-03T09:38:59.048Z,58.45
2024-03-03T09:40:01.536Z,58.15
2024-03-03T09:41:06.595Z,53.70
2024-03-03T09:42:08.954Z,56.13
2024-03-03T09:43:20.604Z,56.42
2024-03-03T09:44:24.659Z,49.45
2024-03-03T09:45:28.976Z,53.65
2024-03-03T09:46:31.902Z,56.97
2024-03-03T09:47:35.517Z,49.95
2024-03-03T09:48:40.404Z,52.38
2024-03-03T09:49:46.327Z,54.85
2024-03-03T09:50:51.558Z,55.55
2024-03-03T09:51:54.450Z,49.80
2024-03-03T09:52:59.204Z,54.90
2024-03-03T09:54:02.870Z,55.72
2024-03-03T09:55:06.280Z,54.20
2024-03-03T09:56:11.770Z,55.33
2024-03-03T09:57:15.149Z,52.42
2024-03-03T09:58:16.967Z,48.70
2024-03-03T09:59:19.228Z,49.88
2024-03-03T10:00:23.736Z,51.47
2024-03-03T10:01:26.997Z,49.25
2024-03-03T10:02:31.531Z,48.90
2024-03-03T10:03:34.424Z,52.35
2024-03-03T10:04:38.824Z,48.75
2024-03-03T10:05:41.856Z,46.42
2024-03-03T10:06:45.547Z,52.75
2024-03-03T10:07:52.057Z,47.35
2024-03-03T10:09:00.638Z,48.83
2024-03-03T10:10:07.051Z,47.92
2024-03-03T10:11:16.042Z,50.80
2024-03-03T10:12:19.366Z,48.80
2024-03-03T10:13:22.286Z,48.30
2024-03-03T10:14:27.367Z,46.75
2024-03-03T10:15:31.061Z,49.97
2024-03-03T10:16:36.781Z,51.28
2024-03-03T10:17:38.805Z,48.47
2024-03-03T10:18:40.635Z,49.10
2024-03-03T10:19:42.830Z,50.80
2024-03-03T10:20:44.478Z,47.88
2024-03-03T10:21:48.997Z,48.05
2024-03-03T10:22:50.881Z,47.47
2024-03-03T10:23:52.685Z,48.90
2024-03-03T10:25:14.183Z,50.10
2024-03-03T10:26:17.271Z,48.63
2024-03-03T10:27:22.754Z,47.58
2024-03-03T10:28:25.088Z,51.67
2024-03-03T10:29:28.470Z,49.10
2024-03-03T10:30:30.769Z,49.83
2024-03-03T10:31:32.544Z,47.97
2024-03-03T10:32:35.602Z,49.58
2024-03-03T10:33:37.400Z,47.50
2024-03-03T10:34:40.237Z,47.47
2024-03-03T10:35:42.508Z,46.83
2024-03-03T10:36:44.386Z,42.13
2024-03-03T10:38:05.323Z,43.40
2024-03-03T10:39:09.540Z,44.47
2024-03-03T10:40:12.392Z,44.28
2024-03-03T10:41:14.367Z,46.22
2024-03-03T10:42:16.177Z,44.97
2024-03-03T10:43:21.430Z,45.58
2024-03-03T10:44:24.861Z,40.75
2024-03-03T10:45:26.485Z,43.20
2024-03-03T10:46:29.018Z,41.58
2024-03-03T10:47:30.848Z,51.72
2024-03-03T10:48:32.872Z,46.35
2024-03-03T10:49:36.916Z,41.97
2024-03-03T10:50:39.360Z,39.78
2024-03-03T10:51:41.172Z,44.35
2024-03-03T10:52:44.300Z,45.42
2024-03-03T10:53:52.806Z,42.58
2024-03-03T10:54:54.982Z,41.55
2024-03-03T10:55:57.049Z,46.58
2024-03-03T10:57:00.500Z,42.50
2024-03-03T10:58:04.029Z,41.35
2024-03-03T10:59:06.110Z,46.40
2024-03-03T11:00:15.544Z,43.63
2024-03-03T11:01:18.225Z,45.83
2024-03-03T11:02:21.628Z,43.13
2024-03-03T11:03:25.364Z,45.17
2024-03-03T11:04:31.797Z,47.60
2024-03-03T11:05:33.887Z,45.15
2024-03-03T11:06:38.404Z,44.38
2024-03-03T11:07:40.538Z,51.33
2024-03-03T11:08:51.062Z,50.17
2024-03-03T11:09:54.327Z,46.42
2024-03-03T11:11:03.934Z,42.60
2024-03-03T11:12:07.809Z,44.25
2024-03-03T11:13:11.715Z,49.47
2024-03-03T11:14:14.216Z,51.60
2024-03-03T11:15:21.593Z,52.08
2024-03-03T11:16:29.526Z,44.38
2024-03-03T11:17:33.899Z,51.30
2024-03-03T11:18:39.516Z,63.22
2024-03-03T11:19:45.906Z,64.50
2024-03-03T11:20:53.733Z,51.50
2024-03-03T11:22:04.601Z,56.45
2024-03-03T11:23:15.028Z,44.17
2024-03-03T11:24:32.897Z,43.22
2024-03-03T11:25:43.818Z,43.08
2024-03-03T11:26:48.145Z,42.05
2024-03-03T11:27:56.712Z,44.45
2024-03-03T11:29:00.599Z,50.38
2024-03-03T11:30:02.751Z,41.75
2024-03-03T11:31:04.947Z,46.63
2024-03-03T11:32:09.699Z,47.33
2024-03-03T11:33:12.661Z,52.30
2024-03-03T11:34:16.411Z,52.05
2024-03-03T11:35:19.361Z,51.35
2024-03-03T11:36:22.758Z,50.10
2024-03-03T11:37:25.846Z,49.20
2024-03-03T11:38:57.889Z,46.70
2024-03-03T11:40:04.758Z,47.80
2024-03-03T11:41:12.016Z,60.92
2024-03-03T11:42:38.705Z,48.83
2024-03-03T11:43:41.947Z,39.85
2024-03-03T11:44:51.882Z,46.80
2024-03-03T11:46:59.499Z,41.35
2024-03-03T11:48:03.832Z,44.75
2024-03-03T11:49:07.285Z,39.95
2024-03-03T11:50:25.612Z,43.55
2024-03-03T11:51:30.847Z,47.38
2024-03-03T11:52:43.819Z,49.42
2024-03-03T11:54:01.675Z,44.67
2024-03-03T11:55:05.118Z,47.15
2024-03-03T11:56:21.378Z,44.92
2024-03-03T11:57:23.937Z,43.30
2024-03-03T11:58:25.775Z,46.95
2024-03-03T11:59:38.700Z,47.28
2024-03-03T12:00:40.711Z,44.72
2024-03-03T12:01:50.543Z,39.25
2024-03-03T12:02:53.788Z,39.08
2024-03-03T12:03:58.010Z,38.78
2024-03-03T12:05:05.298Z,40.17
2024-03-03T12:06:08.820Z,39.70
2024-03-03T12:07:18.585Z,42.15
2024-03-03T12:08:21.735Z,41.38
2024-03-03T12:09:24.709Z,41.03
2024-03-03T12:10:28.956Z,37.58
2024-03-03T12:11:31.782Z,40.70
2024-03-03T12:12:40.035Z,40.83
2024-03-03T12:13:41.700Z,36.70
2024-03-03T12:14:43.982Z,37.38
2024-03-03T12:15:48.055Z,37.95
2024-03-03T12:16:50.632Z,39.03
2024-03-03T12:17:54.071Z,40.95
2024-03-03T12:18:55.916Z,36.53
2024-03-03T12:19:58.290Z,36.10
2024-03-03T12:21:01.808Z,41.22
2024-03-03T12:22:04.344Z,39.58
2024-03-03T12:23:06.148Z,35.33
2024-03-03T12:24:09.295Z,35.92
2024-03-03T12:25:12.011Z,38.75
2024-03-03T12:26:14.369Z,41.50
2024-03-03T12:27:16.079Z,39.55
2024-03-03T12:28:17.974Z,38.95
2024-03-03T12:29:19.642Z,40.88
2024-03-03T12:30:22.888Z,40.40
2024-03-03T12:31:24.663Z,38.60
2024-03-03T12:32:28.719Z,39.25
2024-03-03T12:33:30.464Z,38.85
2024-03-03T12:34:32.248Z,37.47
2024-03-03T12:35:35.017Z,38.67
2024-03-03T12:36:36.878Z,38.05
2024-03-03T12:37:39.879Z,36.90
2024-03-03T12:38:42.957Z,36.10
2024-03-03T12:39:47.460Z,37.88
2024-03-03T12:40:49.432Z,41.90
2024-03-03T12:41:51.157Z,37.20
2024-03-03T12:42:53.956Z,42.50
2024-03-03T12:43:59.738Z,45.03
2024-03-03T12:45:01.405Z,34.65
2024-03-03T12:46:03.580Z,35.05
2024-03-03T12:47:12.860Z,36.30
2024-03-03T12:48:14.648Z,36.78
2024-03-03T12:49:19.426Z,38.00
2024-03-03T12:50:21.518Z,41.40
2024-03-03T12:51:23.599Z,40.05
2024-03-03T12:52:25.649Z,43.92
2024-03-03T12:53:35.212Z,40.08
2024-03-03T12:54:42.993Z,40.13
2024-03-03T12:55:44.783Z,35.45
2024-03-03T12:56:48.318Z,38.28
2024-03-03T12:57:50.271Z,37.60
2024-03-03T12:58:52.874Z,40.35
2024-03-03T12:59:56.254Z,39.33
2024-03-03T13:00:58.045Z,41.00
2024-03-03T13:02:05.085Z,39.92
2024-03-03T13:03:09.340Z,45.08
2024-03-03T13:04:13.072Z,45.72
2024-03-03T13:05:17.092Z,41.83
2024-03-03T13:06:20.622Z,40.00
2024-03-03T13:07:24.200Z,41.15
2024-03-03T13:08:26.121Z,37.63
2024-03-03T13:09:31.825Z,38.55
2024-03-03T13:10:35.996Z,41.88
2024-03-03T13:11:37.875Z,41.85
2024-03-03T13:12:39.501Z,46.42
2024-03-03T13:13:41.632Z,45.88
2024-03-03T13:14:44.829Z,47.53
2024-03-03T13:15:51.046Z,47.35
2024-03-03T13:17:09.262Z,55.50
2024-03-03T13:18:15.588Z,48.13
2024-03-03T13:19:21.380Z,45.45
2024-03-03T13:20:29.212Z,53.58
2024-03-03T13:21:31.343Z,65.60
2024-03-03T13:22:33.787Z,63.80
2024-03-03T13:23:35.646Z,62.50
2024-03-03T13:24:51.283Z,54.60
2024-03-03T13:25:53.787Z,80.07
2024-03-03T13:26:56.811Z,72.57
2024-03-03T13:27:58.841Z,62.08
2024-03-03T13:29:00.869Z,64.85
2024-03-03T13:30:08.080Z,58.15
2024-03-03T13:31:12.499Z,56.30
2024-03-03T13:32:14.744Z,54.42
2024-03-03T13:33:16.451Z,58.58